Flight Track Log - Related Links

Times and Time Zones

All times are in EDT time to prevent confusion due to time zone crossing. See the KAP131 flight status page for this flight to view local times or setup timezone preferences in your user account.

Time Position Orientation Groundspeed Altitude Reporting Facility
EDT Latitude Longitude Course Direction KTS MPH feet Rate Location/Type
Sun 02:27:33 PM 42.3500 -70.9833 124° Southeast 95 109 400  Level KA90
Sun 02:28:27 PM 42.3333 -70.9500 124° Southeast 126 145 1,300 950 Climbing KA90
Sun 02:29:33 PM 42.3167 -70.9000 114° Southeast 131 151 2,300 714 Climbing KA90
Sun 02:30:33 PM 42.2833 -70.8833 160° South 125 144 2,800 470 Climbing KA90
Sun 02:31:28 PM 42.2667 -70.8667 143° Southeast 125 144 3,200 470 Climbing KA90
Sun 02:32:28 PM 42.2333 -70.8333 143° Southeast 130 150 3,700 550 Climbing KA90
Sun 02:33:28 PM 42.2000 -70.8167 160° South 135 155 4,300 550 Climbing KA90
Sun 02:34:28 PM 42.1667 -70.7833 143° Southeast 136 157 4,800 500 Climbing KA90
Sun 02:36:00 PM 42.1129 -70.7401 116° Southeast  Level Estimated
Sun 02:43:00 PM 41.8670 -70.5435 114° Southeast  Level Estimated
Sun 02:44:00 PM 41.8821 -70.4925 68° East  Level FlightAware Approximate
Sun 02:45:00 PM 41.8972 -70.4415 68° East  Level FlightAware Approximate
Sun 02:46:00 PM 41.9122 -70.3904 68° East  Level FlightAware Approximate
Sun 02:47:00 PM 41.9272 -70.3394 68° East  Level FlightAware Approximate
Sun 02:48:00 PM 41.9422 -70.2883 68° East  Level FlightAware Approximate
Sun 02:49:00 PM 41.9026 -70.2750 180° South  Level Estimated
Sun 02:50:00 PM 41.8675 -70.2469 149° Southeast  Level FlightAware Approximate
Sun 02:51:00 PM 41.8324 -70.2188 149° Southeast  Level FlightAware Approximate
Sun 02:52:00 PM 41.7974 -70.1907 149° Southeast  Level FlightAware Approximate
Sun 02:53:00 PM 41.7623 -70.1626 149° Southeast  Level FlightAware Approximate
Sun 02:54:00 PM 41.7272 -70.1346 149° Southeast  Level FlightAware Approximate
Sun 02:55:00 PM 41.6921 -70.1066 149° Southeast  Level FlightAware Approximate
Sun 02:56:00 PM 41.6570 -70.0786 149° Southeast  Level FlightAware Approximate
Sun 02:57:00 PM 41.6218 -70.0507 149° Southeast  Level FlightAware Approximate
Sun 02:58:00 PM 41.5867 -70.0228 149° Southeast  Level FlightAware Approximate
Sun 02:59:00 PM 41.5840 -70.0365 189° South  Level FlightAware Approximate
Sun 03:00:00 PM 41.5436 -70.0446 189° South  Level FlightAware Approximate
Sun 03:01:00 PM 41.5030 -70.0500 180° South  Level FlightAware Approximate
Sun 03:02:00 PM 41.4622 -70.0500 180° South  Level FlightAware Approximate
Sun 03:03:00 PM 41.4213 -70.0500 180° South  Level FlightAware Approximate
Sun 03:04:00 PM 41.3805 -70.0500 180° South  Level FlightAware Approximate
Sun 03:05:00 PM 41.3396 -70.0500 180° South  Level FlightAware Approximate
Sun 03:06:00 PM 41.2987 -70.0500 180° South  Level FlightAware Approximate
Sun 03:07:00 PM 41.2579 -70.0500 180° South  Level FlightAware Approximate
Sun 03:08:00 PM 41.2500 -70.0500 180° South  Level FlightAware Approximate

Login

Don't have an account? Register now (free) for customized features, flight alerts, and more!